Suwanee, Georgia
Current Conditions -  °F | °C
As of 5:53 AM on Sunday 23 Nov 2014 (Local Time) from KPDK Reporting Station
Light Rain Light Rain  
Wind Chill: 40°   Ceiling: 500
Heat Index: 44°   Visibility: 4mi
Dew Point: 42°   Wind: 8mph
Humidity: 93%   Direction: 70°ENE
Pressure: 30.07"   Gusts: NA
Location:  34.05°N, 84.07°W
Report Text: KPDK 231053Z AUTO 07007KT 030V090 4SM -RA BR OVC005 07/06 A3007 RMK AO2 CIG 004V009 SLP187 P0005 T00670056
Loading
Personal Weather Stations






























Interactive Weather Map New forecast layout! Learn more

10-Day Weather Forecast

Advertisements
Track Severe Weather on mobile